createdAt,value
2023-03-01T00:01:22.356Z,34.33
2023-03-01T00:03:49.616Z,39.47
2023-03-01T00:06:16.998Z,38.37
2023-03-01T00:08:43.920Z,35.87
2023-03-01T00:11:13.907Z,36.43
2023-03-01T00:13:42.057Z,32.07
2023-03-01T00:16:14.029Z,34.00
2023-03-01T00:18:41.444Z,31.10
2023-03-01T00:21:08.764Z,32.27
2023-03-01T00:23:36.320Z,33.53
2023-03-01T00:26:07.417Z,36.23
2023-03-01T00:28:35.450Z,32.77
2023-03-01T00:31:10.599Z,35.00
2023-03-01T00:33:37.523Z,33.77
2023-03-01T00:36:05.091Z,32.13
2023-03-01T00:38:35.224Z,33.43
2023-03-01T00:41:10.265Z,37.27
2023-03-01T00:43:40.179Z,34.27
2023-03-01T00:46:15.195Z,36.57
2023-03-01T00:48:42.631Z,37.97
2023-03-01T00:51:13.232Z,34.23
2023-03-01T00:53:40.451Z,34.43
2023-03-01T00:56:09.719Z,30.97
2023-03-01T00:58:36.961Z,30.27
2023-03-01T01:01:20.861Z,33.27
2023-03-01T01:03:50.891Z,36.33
2023-03-01T01:06:23.863Z,34.83
2023-03-01T01:08:51.541Z,35.23
2023-03-01T01:11:19.262Z,34.88
2023-03-01T01:13:48.159Z,31.13
2023-03-01T01:16:16.549Z,31.87
2023-03-01T01:18:44.184Z,36.60
2023-03-01T01:21:14.865Z,31.60
2023-03-01T01:23:43.392Z,35.10
2023-03-01T01:28:38.912Z,31.42
2023-03-01T01:31:06.426Z,29.83
2023-03-01T01:33:34.090Z,34.93
2023-03-01T01:36:01.465Z,33.75
2023-03-01T01:38:28.449Z,30.00
2023-03-01T01:40:55.784Z,32.67
2023-03-01T01:43:26.878Z,34.17
2023-03-01T01:45:58.211Z,31.43
2023-03-01T01:48:41.298Z,32.63
2023-03-01T01:51:18.163Z,32.60
2023-03-01T01:53:47.917Z,36.40
2023-03-01T01:56:18.029Z,31.40
2023-03-01T01:58:45.963Z,32.70
2023-03-01T02:01:13.157Z,31.35
2023-03-01T02:03:43.433Z,35.00
2023-03-01T02:06:30.183Z,31.03
2023-03-01T02:09:03.539Z,27.57
2023-03-01T02:11:33.314Z,29.90
2023-03-01T02:16:28.149Z,29.40
2023-03-01T02:18:55.289Z,30.33
2023-03-01T02:21:25.295Z,32.60
2023-03-01T02:23:52.306Z,34.93
2023-03-01T02:26:46.635Z,33.47
2023-03-01T02:29:13.747Z,31.03
2023-03-01T02:31:43.779Z,32.17
2023-03-01T02:34:17.950Z,33.07
2023-03-01T02:36:56.092Z,32.03
2023-03-01T02:39:27.784Z,32.70
2023-03-01T02:41:57.211Z,26.83
2023-03-01T02:44:24.435Z,33.17
2023-03-01T02:46:55.376Z,28.07
2023-03-01T02:49:26.171Z,29.07
2023-03-01T02:52:09.702Z,28.10
2023-03-01T02:54:45.594Z,29.87
2023-03-01T02:57:13.215Z,29.23
2023-03-01T02:59:41.297Z,29.17
2023-03-01T03:02:21.667Z,30.85
2023-03-01T03:04:48.744Z,27.00
2023-03-01T03:07:15.881Z,30.57
2023-03-01T03:09:42.783Z,27.87
2023-03-01T03:12:10.007Z,29.30
2023-03-01T03:14:36.890Z,30.27
2023-03-01T03:17:07.666Z,32.13
2023-03-01T03:19:34.618Z,27.83
2023-03-01T03:22:02.850Z,28.90
2023-03-01T03:24:29.799Z,30.27
2023-03-01T03:26:56.986Z,30.00
2023-03-01T03:29:23.828Z,31.37
2023-03-01T03:31:51.121Z,32.50
2023-03-01T03:34:19.122Z,31.03
2023-03-01T03:36:46.452Z,33.35
2023-03-01T03:39:13.362Z,28.77
2023-03-01T03:41:40.516Z,31.97
2023-03-01T03:44:07.394Z,34.60
2023-03-01T03:46:34.997Z,29.90
2023-03-01T03:49:01.997Z,33.23
2023-03-01T03:51:29.137Z,32.97
2023-03-01T03:53:56.047Z,29.30
2023-03-01T03:56:28.654Z,29.30
2023-03-01T03:58:55.952Z,37.00
2023-03-01T04:01:23.375Z,38.17
2023-03-01T04:03:55.476Z,37.03
2023-03-01T04:06:22.924Z,34.40
2023-03-01T04:08:52.115Z,32.43
2023-03-01T04:11:28.219Z,34.83
2023-03-01T04:13:58.021Z,32.87
2023-03-01T04:16:26.119Z,34.40
2023-03-01T04:18:57.712Z,31.92
2023-03-01T04:21:24.892Z,27.73
2023-03-01T04:23:53.706Z,30.67
2023-03-01T04:26:21.589Z,28.70
2023-03-01T04:28:50.463Z,31.67
2023-03-01T04:31:22.108Z,30.43
2023-03-01T04:33:54.577Z,33.87
2023-03-01T04:36:27.804Z,31.73
2023-03-01T04:38:55.592Z,31.77
2023-03-01T04:41:25.144Z,26.33
2023-03-01T04:43:52.298Z,34.63
2023-03-01T04:46:21.046Z,34.37
2023-03-01T04:48:48.482Z,34.63
2023-03-01T04:51:16.806Z,33.70
2023-03-01T04:53:44.769Z,31.08
2023-03-01T04:56:12.563Z,29.63
2023-03-01T04:58:39.433Z,31.30
2023-03-01T05:01:16.518Z,30.43
2023-03-01T05:03:45.177Z,35.00
2023-03-01T05:06:12.958Z,32.47
2023-03-01T05:08:40.791Z,33.70
2023-03-01T05:11:10.117Z,34.97
2023-03-01T05:13:39.102Z,28.23
2023-03-01T05:16:08.168Z,34.83
2023-03-01T05:18:36.008Z,32.87
2023-03-01T05:21:09.556Z,34.03
2023-03-01T05:23:37.313Z,33.97
2023-03-01T05:26:09.411Z,35.78
2023-03-01T05:28:38.996Z,40.60
2023-03-01T05:31:10.747Z,42.53
2023-03-01T05:33:39.199Z,44.17
2023-03-01T05:36:08.345Z,43.72
2023-03-01T05:41:02.836Z,44.53
2023-03-01T05:43:35.350Z,42.67
2023-03-01T05:46:02.813Z,40.83
2023-03-01T05:48:30.189Z,37.80
2023-03-01T05:51:01.442Z,42.73
2023-03-01T05:53:28.642Z,34.70
2023-03-01T05:55:55.771Z,30.23
2023-03-01T05:58:22.833Z,33.17
2023-03-01T06:00:50.351Z,29.50
2023-03-01T06:03:18.721Z,30.20
2023-03-01T06:08:14.134Z,35.13
2023-03-01T06:10:41.898Z,35.85
2023-03-01T06:13:09.013Z,34.67
2023-03-01T06:15:36.400Z,33.13
2023-03-01T06:18:03.441Z,38.93
2023-03-01T06:20:30.740Z,37.30
2023-03-01T06:22:58.254Z,34.17
2023-03-01T06:25:27.843Z,33.67
2023-03-01T06:27:54.953Z,31.80
2023-03-01T06:30:24.034Z,31.10
2023-03-01T06:32:51.014Z,29.45
2023-03-01T06:35:19.687Z,31.00
2023-03-01T06:37:48.224Z,31.10
2023-03-01T06:40:17.134Z,32.20
2023-03-01T06:42:48.296Z,31.33
2023-03-01T06:45:16.165Z,32.47
2023-03-01T06:47:43.204Z,32.30
2023-03-01T06:50:11.577Z,34.23
2023-03-01T06:52:38.766Z,36.03
2023-03-01T06:55:06.859Z,34.50
2023-03-01T06:57:33.842Z,33.13
2023-03-01T07:00:01.208Z,30.45
2023-03-01T07:02:28.246Z,30.05
2023-03-01T07:04:55.494Z,26.08
2023-03-01T07:07:22.465Z,26.48
2023-03-01T07:09:50.025Z,25.33
2023-03-01T07:12:17.388Z,24.05
2023-03-01T07:14:45.232Z,23.83
2023-03-01T07:17:12.082Z,22.70
2023-03-01T07:19:39.323Z,24.42
2023-03-01T07:22:08.850Z,22.88
2023-03-01T07:24:36.366Z,22.13
2023-03-01T07:27:03.516Z,23.65
2023-03-01T07:29:31.346Z,22.60
2023-03-01T07:31:58.281Z,23.50
2023-03-01T07:34:25.711Z,23.77
2023-03-01T07:36:53.435Z,22.95
2023-03-01T07:39:20.801Z,23.73
2023-03-01T07:41:47.751Z,24.67
2023-03-01T07:44:14.967Z,23.73
2023-03-01T07:46:42.096Z,23.10
2023-03-01T07:49:09.373Z,23.60
2023-03-01T07:51:36.336Z,22.60
2023-03-01T07:54:03.666Z,23.45
2023-03-01T07:56:30.954Z,21.52
2023-03-01T07:59:00.970Z,22.45
2023-03-01T08:01:28.108Z,20.88
2023-03-01T08:03:55.350Z,22.13
2023-03-01T08:06:22.476Z,20.63
2023-03-01T08:08:49.713Z,20.17
2023-03-01T08:11:17.057Z,13.25
2023-03-01T08:13:44.830Z,12.30
2023-03-01T08:16:15.520Z,13.82
2023-03-01T08:18:44.198Z,13.07
2023-03-01T08:21:17.276Z,12.07
2023-03-01T08:23:44.906Z,10.75
2023-03-01T08:26:15.065Z,12.88
2023-03-01T08:28:43.124Z,12.70
2023-03-01T08:31:29.712Z,11.45
2023-03-01T08:34:00.596Z,13.23
2023-03-01T08:36:34.071Z,14.45
2023-03-01T08:39:01.463Z,14.30
2023-03-01T08:41:28.606Z,13.80
2023-03-01T08:43:59.818Z,12.98
2023-03-01T08:46:32.923Z,13.60
2023-03-01T08:49:00.668Z,14.05
2023-03-01T08:51:28.052Z,14.43
2023-03-01T08:53:55.294Z,30.40
2023-03-01T08:56:22.189Z,14.02
2023-03-01T08:58:50.202Z,15.82
2023-03-01T09:01:19.812Z,14.85
2023-03-01T09:03:47.533Z,16.55
2023-03-01T09:06:15.533Z,16.83
2023-03-01T09:08:45.495Z,18.10
2023-03-01T09:11:16.442Z,17.25
2023-03-01T09:13:44.578Z,19.15
2023-03-01T09:16:14.192Z,19.67
2023-03-01T09:18:44.822Z,16.55
2023-03-01T09:21:17.388Z,16.33
2023-03-01T09:23:46.854Z,15.80
2023-03-01T09:26:22.372Z,17.70
2023-03-01T09:28:52.802Z,33.28
2023-03-01T09:31:24.678Z,18.48
2023-03-01T09:33:56.949Z,30.75
2023-03-01T09:36:31.612Z,23.10
2023-03-01T09:39:00.244Z,20.45
2023-03-01T09:41:47.771Z,15.32
2023-03-01T09:44:37.174Z,28.73
2023-03-01T09:47:04.820Z,20.13
2023-03-01T09:49:40.078Z,19.38
2023-03-01T09:52:39.379Z,15.68
2023-03-01T09:55:17.340Z,16.38
2023-03-01T09:57:52.288Z,17.73
2023-03-01T10:00:48.428Z,16.20
2023-03-01T10:04:12.347Z,15.25
2023-03-01T10:06:51.872Z,15.90
2023-03-01T10:09:19.857Z,15.73
2023-03-01T10:11:51.992Z,14.55
2023-03-01T10:14:33.792Z,15.30
2023-03-01T10:17:26.970Z,17.08
2023-03-01T10:19:53.922Z,18.02
2023-03-01T10:22:30.396Z,17.88
2023-03-01T10:25:04.222Z,17.92
2023-03-01T10:27:48.723Z,18.50
2023-03-01T10:30:36.511Z,17.05
2023-03-01T10:33:20.600Z,17.33
2023-03-01T10:35:49.524Z,17.52
2023-03-01T10:38:20.341Z,17.45
2023-03-01T10:40:53.493Z,33.28
2023-03-01T10:43:21.750Z,19.42
2023-03-01T10:45:49.303Z,17.85
2023-03-01T10:48:28.656Z,17.13
2023-03-01T10:50:58.620Z,18.30
2023-03-01T10:53:30.680Z,19.52
2023-03-01T10:56:01.545Z,16.60
2023-03-01T10:58:29.899Z,16.92
2023-03-01T11:01:05.947Z,16.60
2023-03-01T11:03:38.895Z,18.23
2023-03-01T11:06:12.142Z,17.00
2023-03-01T11:08:48.273Z,17.08
2023-03-01T11:11:36.026Z,18.02
2023-03-01T11:14:26.414Z,15.95
2023-03-01T11:17:04.515Z,15.02
2023-03-01T11:19:32.335Z,14.63
2023-03-01T11:22:05.407Z,13.25
2023-03-01T11:24:42.273Z,13.27
2023-03-01T11:27:32.885Z,12.95
2023-03-01T11:30:00.006Z,15.93
2023-03-01T11:32:34.225Z,11.48
2023-03-01T11:35:11.428Z,14.38
2023-03-01T11:37:45.487Z,14.95
2023-03-01T11:40:18.269Z,14.35
2023-03-01T11:42:51.116Z,14.85
2023-03-01T11:45:18.390Z,14.75
2023-03-01T11:47:57.981Z,17.45
2023-03-01T11:50:39.679Z,27.27
2023-03-01T11:53:27.928Z,18.20
2023-03-01T11:56:26.399Z,16.00
2023-03-01T11:59:30.634Z,16.42
2023-03-01T12:02:06.601Z,16.33
2023-03-01T12:05:11.171Z,17.98
2023-03-01T12:08:05.763Z,28.83
2023-03-01T12:11:01.262Z,44.50
2023-03-01T12:13:34.397Z,35.38
2023-03-01T12:16:13.082Z,19.88
2023-03-01T12:21:43.477Z,17.63
2023-03-01T12:24:30.034Z,16.98
2023-03-01T12:27:34.682Z,18.20
2023-03-01T12:30:23.766Z,17.27
2023-03-01T12:33:15.585Z,19.27
2023-03-01T12:36:15.586Z,20.23
2023-03-01T12:38:44.265Z,19.52
2023-03-01T12:44:02.320Z,18.95
2023-03-01T12:47:00.521Z,20.65
2023-03-01T12:49:37.330Z,19.30
2023-03-01T12:52:30.395Z,20.25
2023-03-01T12:55:02.210Z,19.67
2023-03-01T12:57:41.574Z,18.90
2023-03-01T13:00:36.750Z,20.17
2023-03-01T13:03:22.940Z,19.55
2023-03-01T13:05:55.697Z,54.17
2023-03-01T13:08:34.135Z,18.98
2023-03-01T13:11:04.749Z,26.38
2023-03-01T13:13:32.715Z,19.00
2023-03-01T13:16:22.524Z,19.33
2023-03-01T13:18:49.806Z,18.73
2023-03-01T13:21:31.496Z,18.20
2023-03-01T13:23:58.671Z,18.08
2023-03-01T13:26:25.628Z,19.63
2023-03-01T13:28:58.307Z,17.60
2023-03-01T13:31:48.490Z,20.00
2023-03-01T13:34:53.023Z,23.00
2023-03-01T13:37:27.000Z,19.10
2023-03-01T13:39:54.285Z,18.95
2023-03-01T13:42:38.493Z,18.95
2023-03-01T13:45:19.977Z,16.38
2023-03-01T13:47:50.355Z,17.95
2023-03-01T13:50:22.163Z,17.45
2023-03-01T13:53:06.115Z,17.52
2023-03-01T13:55:44.001Z,18.65
2023-03-01T13:58:31.789Z,17.70
2023-03-01T14:01:08.270Z,18.90
2023-03-01T14:03:42.842Z,18.35
2023-03-01T14:06:19.101Z,19.98
2023-03-01T14:08:50.584Z,16.80
2023-03-01T14:11:39.357Z,18.67
2023-03-01T14:14:21.833Z,17.88
2023-03-01T14:17:14.160Z,20.05
2023-03-01T14:19:45.930Z,18.95
2023-03-01T14:22:26.173Z,15.77
2023-03-01T14:24:56.857Z,16.02
2023-03-01T14:27:45.801Z,18.52
2023-03-01T14:30:20.313Z,16.00
2023-03-01T14:33:07.425Z,18.23
2023-03-01T14:35:36.447Z,15.82
2023-03-01T14:40:37.113Z,86.53
2023-03-01T14:43:12.631Z,15.07
2023-03-01T14:45:39.692Z,21.27
2023-03-01T14:48:08.599Z,15.82
2023-03-01T14:50:37.371Z,17.48
2023-03-01T14:53:08.880Z,16.52
2023-03-01T14:55:39.791Z,16.17
2023-03-01T14:58:12.604Z,20.58
2023-03-01T15:00:44.689Z,31.88
2023-03-01T15:03:26.894Z,20.40
2023-03-01T15:05:54.727Z,23.00
2023-03-01T15:08:25.695Z,26.65
2023-03-01T15:11:02.963Z,19.27
2023-03-01T15:13:35.044Z,17.20
2023-03-01T15:16:10.735Z,22.60
2023-03-01T15:18:38.944Z,24.40
2023-03-01T15:21:30.669Z,18.92
2023-03-01T15:24:20.463Z,23.48
2023-03-01T15:26:54.820Z,22.33
2023-03-01T15:29:31.039Z,22.03
2023-03-01T15:32:06.068Z,21.50
2023-03-01T15:34:38.495Z,18.77
2023-03-01T15:37:28.414Z,17.48
2023-03-01T15:39:58.149Z,18.90
2023-03-01T15:42:28.028Z,24.40
2023-03-01T15:45:18.042Z,25.90
2023-03-01T15:47:51.142Z,21.37
2023-03-01T15:50:38.586Z,24.33
2023-03-01T15:53:09.170Z,25.67
2023-03-01T15:55:36.639Z,27.67
2023-03-01T15:58:21.504Z,37.83
2023-03-01T16:01:00.906Z,30.70
2023-03-01T16:03:28.561Z,90.67
2023-03-01T16:05:55.801Z,63.60
2023-03-01T16:08:22.737Z,94.10
2023-03-01T16:10:52.254Z,98.33
2023-03-01T16:13:20.306Z,56.10
2023-03-01T16:15:48.203Z,58.63
2023-03-01T16:18:15.143Z,48.23
2023-03-01T16:20:42.302Z,57.77
2023-03-01T16:23:11.366Z,220.23
2023-03-01T16:25:39.008Z,188.03
2023-03-01T16:28:10.164Z,201.73
2023-03-01T16:30:40.557Z,194.30
2023-03-01T16:33:26.828Z,140.63
2023-03-01T16:35:56.473Z,105.80
2023-03-01T16:38:23.594Z,110.30
2023-03-01T16:40:52.565Z,112.10
2023-03-01T16:43:19.520Z,136.70
2023-03-01T16:45:47.627Z,150.77
2023-03-01T16:48:15.177Z,157.27
2023-03-01T16:50:42.548Z,148.27
2023-03-01T16:53:09.617Z,138.50
2023-03-01T16:55:36.963Z,138.67
2023-03-01T16:58:05.410Z,120.53
2023-03-01T17:00:32.719Z,145.85
2023-03-01T17:02:59.726Z,130.40
2023-03-01T17:05:27.234Z,103.10
2023-03-01T17:07:56.704Z,106.87
2023-03-01T17:10:24.200Z,109.03
2023-03-01T17:12:51.672Z,108.57
2023-03-01T17:15:18.971Z,105.87
2023-03-01T17:17:45.915Z,96.23
2023-03-01T17:20:13.780Z,83.03
2023-03-01T17:22:40.659Z,82.90
2023-03-01T17:25:12.297Z,96.10
2023-03-01T17:27:40.001Z,114.07
2023-03-01T17:30:11.425Z,96.30
2023-03-01T17:32:38.632Z,98.67
2023-03-01T17:35:06.521Z,93.40
2023-03-01T17:37:33.653Z,88.57
2023-03-01T17:40:00.808Z,86.20
2023-03-01T17:42:27.753Z,93.27
2023-03-01T17:44:54.952Z,87.13
2023-03-01T17:47:21.853Z,89.87
2023-03-01T17:49:49.020Z,86.50
2023-03-01T17:52:16.052Z,79.27
2023-03-01T17:54:43.273Z,62.17
2023-03-01T17:57:10.178Z,63.03
2023-03-01T17:59:37.680Z,59.37
2023-03-01T18:02:04.586Z,68.27
2023-03-01T18:04:32.587Z,84.13
2023-03-01T18:07:00.032Z,88.83
2023-03-01T18:09:28.386Z,99.27
2023-03-01T18:11:55.341Z,77.03
2023-03-01T18:14:22.757Z,88.50
2023-03-01T18:16:50.962Z,80.30
2023-03-01T18:19:18.289Z,73.53
2023-03-01T18:21:45.413Z,73.97
2023-03-01T18:24:12.597Z,74.30
2023-03-01T18:26:40.361Z,71.43
2023-03-01T18:29:08.373Z,75.05
2023-03-01T18:31:35.570Z,75.10
2023-03-01T18:34:02.998Z,67.27
2023-03-01T18:36:33.240Z,63.03
2023-03-01T18:39:03.508Z,69.00
2023-03-01T18:41:30.860Z,64.10
2023-03-01T18:43:58.585Z,64.57
2023-03-01T18:46:26.024Z,63.70
2023-03-01T18:48:54.507Z,59.97
2023-03-01T18:51:25.496Z,60.33
2023-03-01T18:53:52.956Z,59.87
2023-03-01T18:56:19.837Z,58.03
2023-03-01T18:58:47.287Z,61.57
2023-03-01T19:01:20.080Z,69.23
2023-03-01T19:03:47.893Z,68.17
2023-03-01T19:06:15.272Z,57.27
2023-03-01T19:08:44.437Z,52.43
2023-03-01T19:11:13.258Z,47.35
2023-03-01T19:16:16.405Z,179.83
2023-03-01T19:18:50.256Z,92.83
2023-03-01T19:21:19.934Z,71.13
2023-03-01T19:23:48.870Z,68.90
2023-03-01T19:26:18.518Z,81.78
2023-03-01T19:28:46.558Z,77.80
2023-03-01T19:31:16.750Z,86.57
2023-03-01T19:33:44.333Z,73.70
2023-03-01T19:36:14.671Z,75.00
2023-03-01T19:38:43.141Z,76.40
2023-03-01T19:41:16.923Z,75.22
2023-03-01T19:43:45.679Z,73.23
2023-03-01T19:46:15.055Z,72.25
2023-03-01T19:48:44.587Z,74.17
2023-03-01T19:51:12.522Z,81.37
2023-03-01T19:53:40.765Z,85.63
2023-03-01T19:56:08.940Z,89.10
2023-03-01T19:58:36.649Z,87.70
2023-03-01T20:01:03.680Z,86.03
2023-03-01T20:03:33.857Z,83.63
2023-03-01T20:06:02.689Z,73.10
2023-03-01T20:08:32.072Z,67.10
2023-03-01T20:11:04.483Z,64.37
2023-03-01T20:13:31.715Z,57.20
2023-03-01T20:15:58.806Z,53.80
2023-03-01T20:18:26.809Z,56.53
2023-03-01T20:20:54.101Z,56.60
2023-03-01T20:23:22.213Z,59.87
2023-03-01T20:25:49.242Z,58.87
2023-03-01T20:28:17.975Z,58.70
2023-03-01T20:30:45.801Z,70.85
2023-03-01T20:33:13.159Z,71.55
2023-03-01T20:35:43.943Z,68.27
2023-03-01T20:38:11.177Z,70.13
2023-03-01T20:40:38.402Z,67.93
2023-03-01T20:43:05.612Z,66.27
2023-03-01T20:45:32.518Z,66.07
2023-03-01T20:47:59.749Z,62.23
2023-03-01T20:50:26.715Z,62.23
2023-03-01T20:52:53.984Z,61.83
2023-03-01T20:55:21.044Z,60.70
2023-03-01T20:57:48.238Z,62.50
2023-03-01T21:00:15.454Z,56.30
2023-03-01T21:02:44.041Z,54.63
2023-03-01T21:05:11.032Z,49.55
2023-03-01T21:07:38.371Z,45.20
2023-03-01T21:10:05.637Z,42.53
2023-03-01T21:12:32.910Z,42.20
2023-03-01T21:14:59.847Z,41.97
2023-03-01T21:17:26.996Z,45.57
2023-03-01T21:19:53.909Z,48.87
2023-03-01T21:22:21.070Z,49.13
2023-03-01T21:24:50.191Z,51.47
2023-03-01T21:27:18.863Z,45.20
2023-03-01T21:29:47.144Z,46.43
2023-03-01T21:32:14.921Z,45.05
2023-03-01T21:34:42.203Z,45.17
2023-03-01T21:37:10.790Z,46.87
2023-03-01T21:39:38.030Z,42.60
2023-03-01T21:42:06.010Z,42.23
2023-03-01T21:44:33.800Z,41.17
2023-03-01T21:47:01.398Z,40.22
2023-03-01T21:49:28.415Z,37.60
2023-03-01T21:51:56.082Z,36.77
2023-03-01T21:54:22.998Z,33.87
2023-03-01T21:56:51.106Z,39.50
2023-03-01T21:59:20.958Z,39.20
2023-03-01T22:01:49.654Z,41.83
2023-03-01T22:04:17.130Z,43.25
2023-03-01T22:06:46.835Z,45.23
2023-03-01T22:09:19.262Z,43.87
2023-03-01T22:11:54.015Z,46.10
2023-03-01T22:14:21.906Z,44.27
2023-03-01T22:16:51.756Z,46.13
2023-03-01T22:19:18.999Z,45.37
2023-03-01T22:21:49.886Z,41.40
2023-03-01T22:24:19.231Z,40.20
2023-03-01T22:26:48.400Z,42.77
2023-03-01T22:29:25.313Z,39.53
2023-03-01T22:31:53.822Z,40.10
2023-03-01T22:34:21.203Z,40.67
2023-03-01T22:36:48.946Z,43.60
2023-03-01T22:39:19.132Z,49.47
2023-03-01T22:41:47.759Z,46.40
2023-03-01T22:44:18.260Z,48.00
2023-03-01T22:46:45.570Z,51.83
2023-03-01T22:49:12.716Z,42.93
2023-03-01T22:51:42.459Z,41.10
2023-03-01T22:54:11.095Z,41.90
2023-03-01T22:59:11.455Z,36.80
2023-03-01T23:01:40.190Z,39.13
2023-03-01T23:04:07.532Z,37.58
2023-03-01T23:06:50.219Z,37.47
2023-03-01T23:09:30.973Z,36.60
2023-03-01T23:11:59.973Z,37.93
2023-03-01T23:14:31.247Z,37.92
2023-03-01T23:17:00.733Z,39.30
2023-03-01T23:19:28.768Z,37.17
2023-03-01T23:21:57.296Z,39.28
2023-03-01T23:24:31.881Z,38.05
2023-03-01T23:27:03.047Z,35.17
2023-03-01T23:29:31.314Z,34.33
2023-03-01T23:31:59.879Z,33.53
2023-03-01T23:34:27.493Z,34.42
2023-03-01T23:36:55.755Z,31.67
2023-03-01T23:39:22.781Z,30.98
2023-03-01T23:41:50.200Z,29.93
2023-03-01T23:44:19.536Z,32.23
2023-03-01T23:46:47.961Z,31.67
2023-03-01T23:49:18.787Z,29.45
2023-03-01T23:51:49.703Z,29.23
2023-03-01T23:54:22.028Z,28.33
2023-03-01T23:56:49.360Z,28.50
2023-03-01T23:59:19.253Z,28.90
